createdAt,value
2022-09-15T04:58:05.669Z,96234.72
2022-09-15T05:00:23.238Z,96228.50
2022-09-15T05:02:25.716Z,96228.44
2022-09-15T05:04:29.848Z,96224.09
2022-09-15T05:06:33.591Z,96230.50
2022-09-15T05:08:36.458Z,96227.75
2022-09-15T05:10:39.659Z,96222.31
2022-09-15T05:12:42.523Z,96221.75
2022-09-15T05:14:46.478Z,96213.63
2022-09-15T05:16:49.108Z,96222.22
2022-09-15T05:18:52.985Z,96218.72
2022-09-15T05:20:59.375Z,96224.88
2022-09-15T05:23:01.987Z,96225.94
2022-09-15T05:25:05.522Z,96233.72
2022-09-15T05:27:08.163Z,96233.44
2022-09-15T05:29:10.900Z,96230.72
2022-09-15T05:31:18.794Z,96231.00
2022-09-15T05:33:22.602Z,96225.84
2022-09-15T05:35:25.244Z,96233.34
2022-09-15T05:37:27.856Z,96230.38
2022-09-15T05:39:30.618Z,96246.25
2022-09-15T05:41:33.479Z,96244.09
2022-09-15T05:43:37.391Z,96255.91
2022-09-15T05:45:42.492Z,96244.56
2022-09-15T05:47:47.594Z,96244.03
2022-09-15T05:49:50.252Z,96244.56
2022-09-15T05:51:52.863Z,96250.44
2022-09-15T05:53:55.679Z,96256.34
2022-09-15T05:55:59.445Z,96249.88
2022-09-15T05:58:02.122Z,96249.88
2022-09-15T06:00:05.765Z,96251.78
2022-09-15T06:02:10.125Z,96269.25
2022-09-15T06:04:14.106Z,96274.38
2022-09-15T06:06:19.953Z,96290.53
2022-09-15T06:08:22.695Z,96292.97
2022-09-15T06:10:38.257Z,96300.81
2022-09-15T06:12:42.076Z,96300.53
2022-09-15T06:14:45.851Z,96308.09
2022-09-15T06:16:48.608Z,96305.91
2022-09-15T06:18:53.357Z,96307.53
2022-09-15T06:20:57.502Z,96308.56
2022-09-15T06:23:00.262Z,96317.19
2022-09-15T06:25:03.101Z,96319.59
2022-09-15T06:27:05.979Z,96320.41
2022-09-15T06:29:11.510Z,96320.41
2022-09-15T06:31:15.478Z,96325.78
2022-09-15T06:33:18.452Z,96323.09
2022-09-15T06:35:21.581Z,96325.28
2022-09-15T06:37:33.262Z,96325.28
2022-09-15T06:39:36.170Z,96326.13
2022-09-15T06:42:00.845Z,96319.44
2022-09-15T06:44:02.774Z,96333.13
2022-09-15T06:46:08.795Z,96341.44
2022-09-15T06:48:24.110Z,96340.06
2022-09-15T06:50:27.466Z,96333.88
2022-09-15T06:52:31.567Z,96349.78
2022-09-15T06:54:34.774Z,96343.31
2022-09-15T06:56:39.846Z,96347.91
2022-09-15T06:58:44.320Z,96344.66
2022-09-15T07:00:48.679Z,96348.19
2022-09-15T07:02:51.939Z,96349.00
2022-09-15T07:04:55.396Z,96351.69
2022-09-15T07:06:58.166Z,96340.66
2022-09-15T07:09:02.968Z,96340.88
2022-09-15T07:11:06.019Z,96354.91
2022-09-15T07:13:09.243Z,96352.72
2022-09-15T07:15:13.967Z,96356.47
2022-09-15T07:17:17.581Z,96356.47
2022-09-15T07:19:20.563Z,96356.97
2022-09-15T07:21:24.254Z,96354.84
2022-09-15T07:23:27.494Z,96358.03
2022-09-15T07:25:31.848Z,96353.19
2022-09-15T07:27:34.770Z,96351.53
2022-09-15T07:29:38.871Z,96354.75
2022-09-15T07:31:44.327Z,96358.50
2022-09-15T07:33:49.733Z,96354.72
2022-09-15T07:35:52.499Z,96355.25
2022-09-15T07:37:55.295Z,96351.16
2022-09-15T07:39:58.530Z,96355.47
2022-09-15T07:42:02.960Z,96367.06
2022-09-15T07:44:08.241Z,96365.16
2022-09-15T07:46:11.527Z,96361.13
2022-09-15T07:48:14.735Z,96364.91
2022-09-15T07:50:17.769Z,96368.13
2022-09-15T07:52:20.592Z,96360.56
2022-09-15T07:54:23.803Z,96370.00
2022-09-15T07:56:26.704Z,96370.78
2022-09-15T07:58:30.912Z,96374.56
2022-09-15T08:00:33.603Z,96375.91
2022-09-15T08:02:38.681Z,96378.31
2022-09-15T08:04:41.330Z,96383.97
2022-09-15T08:06:44.108Z,96390.72
2022-09-15T08:08:47.622Z,96383.44
2022-09-15T08:10:50.493Z,96385.84
2022-09-15T08:12:56.049Z,96390.16
2022-09-15T08:15:01.256Z,96380.47
2022-09-15T08:17:11.253Z,96392.56
2022-09-15T08:19:15.146Z,96393.38
2022-09-15T08:21:21.221Z,96403.06
2022-09-15T08:23:24.779Z,96403.88
2022-09-15T08:25:27.758Z,96402.50
2022-09-15T08:27:31.907Z,96406.53
2022-09-15T08:29:36.117Z,96400.06
2022-09-15T08:31:40.727Z,96409.97
2022-09-15T08:33:45.893Z,96406.19
2022-09-15T08:35:49.097Z,96407.81
2022-09-15T08:37:54.491Z,96401.09
2022-09-15T08:40:00.819Z,96402.41
2022-09-15T08:42:04.336Z,96404.81
2022-09-15T08:44:20.657Z,96403.75
2022-09-15T08:46:29.232Z,96410.75
2022-09-15T08:48:43.194Z,96404.28
2022-09-15T08:50:52.286Z,96404.00
2022-09-15T08:53:03.734Z,96392.91
2022-09-15T08:55:14.798Z,96401.53
2022-09-15T08:57:30.276Z,96403.94
2022-09-15T08:59:35.758Z,96403.41
2022-09-15T09:01:51.249Z,96395.81
2022-09-15T09:04:22.480Z,96400.13
2022-09-15T09:06:37.790Z,96409.25
2022-09-15T09:09:15.676Z,96410.34
2022-09-15T09:11:27.616Z,96414.06
2022-09-15T09:13:38.643Z,96408.16
2022-09-15T09:18:08.648Z,96406.53
2022-09-15T09:20:25.089Z,96409.25
2022-09-15T09:24:37.882Z,96410.84
2022-09-15T09:26:40.816Z,96421.13
2022-09-15T09:28:49.163Z,96414.63
2022-09-15T09:30:51.931Z,96407.63
2022-09-15T09:33:07.671Z,96418.44
2022-09-15T09:35:20.308Z,96415.22
2022-09-15T09:37:27.893Z,96422.22
2022-09-15T09:39:30.739Z,96419.22
2022-09-15T09:41:36.880Z,96415.44
2022-09-15T09:43:41.083Z,96417.59
2022-09-15T09:45:45.895Z,96418.13
2022-09-15T09:47:48.823Z,96417.53
2022-09-15T09:49:51.707Z,96415.34
2022-09-15T09:51:57.289Z,96406.16
2022-09-15T09:54:16.675Z,96403.72
2022-09-15T09:56:24.836Z,96401.53
2022-09-15T09:58:28.762Z,96397.47
2022-09-15T10:00:33.274Z,96397.97
2022-09-15T10:02:49.977Z,96395.00
2022-09-15T10:04:54.535Z,96386.34
2022-09-15T10:06:58.851Z,96390.09
2022-09-15T10:09:05.573Z,96389.00
2022-09-15T10:11:11.156Z,96385.22
2022-09-15T10:13:14.115Z,96377.66
2022-09-15T10:15:24.310Z,96380.59
2022-09-15T10:17:39.279Z,96389.72
2022-09-15T10:19:47.895Z,96385.13
2022-09-15T10:21:50.674Z,96385.13
2022-09-15T10:23:54.906Z,96394.81
2022-09-15T10:26:00.491Z,96396.13
2022-09-15T10:28:15.239Z,96396.38
2022-09-15T10:30:19.962Z,96391.50
2022-09-15T10:32:30.490Z,96386.63
2022-09-15T10:34:33.695Z,96392.22
2022-09-15T10:36:37.002Z,96387.94
2022-09-15T10:38:43.285Z,96374.72
2022-09-15T10:40:55.694Z,96371.44
2022-09-15T10:43:06.574Z,96376.28
2022-09-15T10:45:18.581Z,96375.19
2022-09-15T10:47:31.033Z,96369.00
2022-09-15T10:49:54.144Z,96364.69
2022-09-15T10:52:09.063Z,96367.13
2022-09-15T10:54:29.580Z,96370.75
2022-09-15T10:56:38.288Z,96379.72
2022-09-15T10:58:55.975Z,96378.13
2022-09-15T11:01:13.507Z,96369.44
2022-09-15T11:03:43.100Z,96384.00
2022-09-15T11:06:00.499Z,96376.41
2022-09-15T11:08:19.583Z,96377.19
2022-09-15T11:10:30.124Z,96375.81
2022-09-15T11:12:47.756Z,96372.81
2022-09-15T11:15:05.473Z,96364.72
2022-09-15T11:17:23.650Z,96373.41
2022-09-15T11:19:53.591Z,96362.41
2022-09-15T11:21:59.321Z,96359.97
2022-09-15T11:24:24.345Z,96365.59
2022-09-15T11:26:34.798Z,96363.41
2022-09-15T11:28:43.767Z,96364.44
2022-09-15T11:30:54.238Z,96362.25
2022-09-15T11:33:01.773Z,96357.66
2022-09-15T11:35:26.359Z,96360.09
2022-09-15T11:37:38.058Z,96357.38
2022-09-15T11:39:47.398Z,96354.69
2022-09-15T11:41:56.505Z,96352.00
2022-09-15T11:44:16.728Z,96352.25
2022-09-15T11:46:27.063Z,96350.09
2022-09-15T11:48:37.000Z,96357.09
2022-09-15T11:50:45.450Z,96349.22
2022-09-15T11:52:56.174Z,96353.53
2022-09-15T11:55:04.724Z,96362.72
2022-09-15T11:57:19.294Z,96360.53
2022-09-15T11:59:32.587Z,96358.91
2022-09-15T12:01:45.043Z,96350.81
2022-09-15T12:03:52.698Z,96353.22
2022-09-15T12:05:58.778Z,96349.13
2022-09-15T12:08:06.142Z,96342.94
2022-09-15T12:10:16.624Z,96352.38
2022-09-15T12:12:22.843Z,96360.19
2022-09-15T12:14:35.868Z,96353.97
2022-09-15T12:16:39.116Z,96352.38
2022-09-15T12:18:48.922Z,96350.78
2022-09-15T12:21:00.476Z,96364.03
2022-09-15T12:23:11.942Z,96360.31
2022-09-15T12:25:21.015Z,96362.00
2022-09-15T12:27:24.087Z,96370.09
2022-09-15T12:29:42.052Z,96367.94
2022-09-15T12:31:46.102Z,96369.03
2022-09-15T12:33:55.958Z,96373.13
2022-09-15T12:36:35.689Z,96367.78
2022-09-15T12:38:38.506Z,96372.66
2022-09-15T12:40:42.030Z,96383.50
2022-09-15T12:42:47.554Z,96382.50
2022-09-15T12:44:55.733Z,96379.03
2022-09-15T12:47:00.459Z,96379.59
2022-09-15T12:49:04.277Z,96382.56
2022-09-15T12:51:10.903Z,96380.97
2022-09-15T12:53:20.278Z,96386.91
2022-09-15T12:55:27.047Z,96383.66
2022-09-15T12:57:33.241Z,96379.31
2022-09-15T12:59:36.253Z,96380.97
2022-09-15T13:01:49.888Z,96382.56
2022-09-15T13:04:29.047Z,96379.06
2022-09-15T13:06:34.900Z,96382.56
2022-09-15T13:08:47.425Z,96379.59
2022-09-15T13:11:03.584Z,96382.00
2022-09-15T13:13:18.587Z,96369.84
2022-09-15T13:15:24.549Z,96363.06
2022-09-15T13:17:30.302Z,96354.91
2022-09-15T13:19:42.261Z,96354.84
2022-09-15T13:21:50.252Z,96350.53
2022-09-15T13:23:54.335Z,96347.25
2022-09-15T13:26:01.680Z,96355.66
2022-09-15T13:28:09.613Z,96352.16
2022-09-15T13:30:31.548Z,96348.34
2022-09-15T13:32:46.964Z,96350.50
2022-09-15T13:35:20.681Z,96345.63
2022-09-15T13:38:21.777Z,96343.44
2022-09-15T13:40:49.998Z,96334.75
2022-09-15T13:43:05.105Z,96343.94
2022-09-15T13:45:29.399Z,96327.44
2022-09-15T13:47:48.946Z,96332.03
2022-09-15T13:49:56.988Z,96335.03
2022-09-15T13:52:04.453Z,96330.16
2022-09-15T13:54:17.163Z,96319.06
2022-09-15T13:56:25.042Z,96316.09
2022-09-15T14:01:00.910Z,96308.56
2022-09-15T14:03:11.727Z,96313.66
2022-09-15T14:05:15.970Z,96301.25
2022-09-15T14:07:24.588Z,96293.97
2022-09-15T14:09:31.020Z,96290.97
2022-09-15T14:11:36.813Z,96296.91
2022-09-15T14:13:44.531Z,96301.72
2022-09-15T14:15:57.868Z,96294.13
2022-09-15T14:18:00.713Z,96291.94
2022-09-15T14:20:17.932Z,96285.44
2022-09-15T14:22:27.286Z,96275.44
2022-09-15T14:24:32.225Z,96276.78
2022-09-15T14:26:39.293Z,96272.47
2022-09-15T14:28:43.200Z,96282.47
2022-09-15T14:30:48.919Z,96277.34
2022-09-15T14:32:55.414Z,96270.03
2022-09-15T14:35:00.811Z,96268.69
2022-09-15T14:37:09.058Z,96272.97
2022-09-15T14:39:25.713Z,96272.97
2022-09-15T14:41:32.942Z,96273.50
2022-09-15T14:43:39.335Z,96279.41
2022-09-15T14:45:56.014Z,96277.78
2022-09-15T14:48:07.236Z,96278.88
2022-09-15T14:50:14.671Z,96269.78
2022-09-15T14:52:32.972Z,96277.72
2022-09-15T14:54:38.910Z,96275.06
2022-09-15T14:56:44.232Z,96274.84
2022-09-15T14:58:52.079Z,96272.44
2022-09-15T15:01:01.542Z,96273.03
2022-09-15T15:03:17.532Z,96270.91
2022-09-15T15:05:25.830Z,96272.38
2022-09-15T15:07:33.082Z,96273.72
2022-09-15T15:09:41.346Z,96269.72
2022-09-15T15:11:44.459Z,96278.91
2022-09-15T15:13:51.208Z,96279.13
2022-09-15T15:15:55.495Z,96275.09
2022-09-15T15:17:58.762Z,96279.47
2022-09-15T15:20:13.707Z,96285.44
2022-09-15T15:22:21.093Z,96284.09
2022-09-15T15:24:25.351Z,96293.00
2022-09-15T15:26:35.922Z,96299.19
2022-09-15T15:28:42.107Z,96301.38
2022-09-15T15:30:47.415Z,96303.84
2022-09-15T15:32:50.262Z,96312.22
2022-09-15T15:34:55.643Z,96304.94
2022-09-15T15:37:03.647Z,96308.16
2022-09-15T15:39:08.661Z,96301.16
2022-09-15T15:41:21.575Z,96309.25
2022-09-15T15:43:27.708Z,96313.56
2022-09-15T15:45:31.704Z,96320.56
2022-09-15T15:47:37.608Z,96317.84
2022-09-15T15:50:02.337Z,96316.25
2022-09-15T15:52:03.479Z,96305.75
2022-09-15T15:54:06.607Z,96305.25
2022-09-15T15:56:09.563Z,96298.25
2022-09-15T15:58:15.258Z,96300.41
2022-09-15T16:00:22.744Z,96308.78
2022-09-15T16:02:27.300Z,96308.25
2022-09-15T16:04:30.717Z,96315.03
2022-09-15T16:06:34.534Z,96323.72
2022-09-15T16:10:50.337Z,96314.06
2022-09-15T16:12:53.323Z,96314.34
2022-09-15T16:14:57.490Z,96311.13
2022-09-15T16:17:00.491Z,96311.44
2022-09-15T16:19:03.190Z,96316.03
2022-09-15T16:21:10.118Z,96313.13
2022-09-15T16:23:20.345Z,96311.56
2022-09-15T16:25:35.426Z,96312.09
2022-09-15T16:27:38.776Z,96325.00
2022-09-15T16:29:42.176Z,96320.63
2022-09-15T16:31:46.425Z,96323.03
2022-09-15T16:33:49.161Z,96324.66
2022-09-15T16:35:55.299Z,96326.25
2022-09-15T16:37:58.014Z,96327.34
2022-09-15T16:40:00.711Z,96332.75
2022-09-15T16:42:03.367Z,96340.03
2022-09-15T16:44:17.304Z,96340.03
2022-09-15T16:46:20.417Z,96347.31
2022-09-15T16:48:25.280Z,96351.63
2022-09-15T16:50:28.898Z,96359.69
2022-09-15T16:52:31.523Z,96350.81
2022-09-15T16:54:34.455Z,96364.56
2022-09-15T16:56:37.352Z,96368.38
2022-09-15T16:58:40.802Z,96356.25
2022-09-15T17:00:47.894Z,96374.63
2022-09-15T17:02:50.727Z,96367.88
2022-09-15T17:04:56.291Z,96370.88
2022-09-15T17:06:59.055Z,96371.16
2022-09-15T17:09:01.839Z,96370.63
2022-09-15T17:11:06.081Z,96372.81
2022-09-15T17:13:09.217Z,96380.91
2022-09-15T17:15:20.362Z,96379.88
2022-09-15T17:17:26.291Z,96380.47
2022-09-15T17:19:29.498Z,96380.75
2022-09-15T17:21:33.901Z,96379.41
2022-09-15T17:23:38.910Z,96383.19
2022-09-15T17:25:48.909Z,96381.56
2022-09-15T17:27:51.903Z,96383.97
2022-09-15T17:29:54.528Z,96382.09
2022-09-15T17:31:57.370Z,96382.91
2022-09-15T17:34:02.174Z,96375.91
2022-09-15T17:36:05.675Z,96374.00
2022-09-15T17:38:10.315Z,96380.47
2022-09-15T17:40:14.315Z,96373.78
2022-09-15T17:42:16.981Z,96380.78
2022-09-15T17:44:19.716Z,96380.78
2022-09-15T17:46:27.315Z,96383.47
2022-09-15T17:48:29.990Z,96385.34
2022-09-15T17:50:35.772Z,96385.34
2022-09-15T17:52:38.636Z,96384.25
2022-09-15T17:54:42.578Z,96388.56
2022-09-15T17:56:45.420Z,96396.66
2022-09-15T17:58:48.131Z,96396.13
2022-09-15T18:00:51.294Z,96389.94
2022-09-15T18:02:56.454Z,96397.19
2022-09-15T18:04:59.650Z,96401.53
2022-09-15T18:07:02.304Z,96404.47
2022-09-15T18:09:05.276Z,96396.94
2022-09-15T18:11:14.211Z,96407.97
2022-09-15T18:13:22.307Z,96403.41
2022-09-15T18:15:26.828Z,96406.91
2022-09-15T18:17:29.563Z,96406.91
2022-09-15T18:19:32.269Z,96405.81
2022-09-15T18:21:35.050Z,96412.03
2022-09-15T18:23:39.063Z,96403.94
2022-09-15T18:25:42.026Z,96404.75
2022-09-15T18:27:46.676Z,96406.91
2022-09-15T18:29:49.272Z,96407.16
2022-09-15T18:31:52.898Z,96405.03
2022-09-15T18:33:55.605Z,96412.84
2022-09-15T18:35:59.318Z,96414.72
2022-09-15T18:38:01.934Z,96413.13
2022-09-15T18:40:07.463Z,96413.72
2022-09-15T18:42:11.120Z,96419.38
2022-09-15T18:44:15.284Z,96407.00
2022-09-15T18:46:18.613Z,96415.66
2022-09-15T18:48:21.504Z,96415.66
2022-09-15T18:50:25.519Z,96423.19
2022-09-15T18:52:28.896Z,96419.16
2022-09-15T18:54:34.779Z,96422.13
2022-09-15T18:56:37.610Z,96426.72
2022-09-15T18:58:40.533Z,96435.09
2022-09-15T19:00:46.344Z,96429.19
2022-09-15T19:02:49.598Z,96435.09
2022-09-15T19:04:52.380Z,96434.00
2022-09-15T19:06:55.042Z,96435.38
2022-09-15T19:08:58.276Z,96433.75
2022-09-15T19:11:02.346Z,96437.25
2022-09-15T19:13:05.414Z,96440.75
2022-09-15T19:15:11.414Z,96446.94
2022-09-15T19:17:16.140Z,96441.56
2022-09-15T19:19:25.336Z,96444.53
2022-09-15T19:21:28.201Z,96443.75
2022-09-15T19:23:30.883Z,96435.66
2022-09-15T19:25:33.666Z,96437.25
2022-09-15T19:27:37.106Z,96441.03
2022-09-15T19:29:42.160Z,96440.53
2022-09-15T19:31:44.860Z,96440.53
2022-09-15T19:33:49.148Z,96449.16
2022-09-15T19:36:05.062Z,96447.56
2022-09-15T19:38:15.806Z,96446.75
2022-09-15T19:40:18.837Z,96451.34
2022-09-15T19:42:21.638Z,96450.00
2022-09-15T19:44:27.048Z,96444.09
2022-09-15T19:46:30.988Z,96451.91
2022-09-15T19:48:39.879Z,96464.28
2022-09-15T19:50:46.324Z,96459.97
2022-09-15T19:52:49.176Z,96462.13
2022-09-15T19:54:55.319Z,96459.69
2022-09-15T19:56:58.700Z,96451.09
2022-09-15T19:59:01.928Z,96461.31
2022-09-15T20:01:04.672Z,96463.19
2022-09-15T20:03:07.636Z,96460.50
2022-09-15T20:05:10.879Z,96464.28
2022-09-15T20:07:16.319Z,96457.81
2022-09-15T20:09:18.966Z,96457.00
2022-09-15T20:11:21.936Z,96454.59
2022-09-15T20:13:26.151Z,96460.25
2022-09-15T20:15:29.779Z,96461.06
2022-09-15T20:17:32.729Z,96455.41
2022-09-15T20:19:37.887Z,96462.16
2022-09-15T20:21:56.839Z,96467.53
2022-09-15T20:24:01.518Z,96464.56
2022-09-15T20:26:06.405Z,96474.53
2022-09-15T20:28:09.277Z,96472.41
2022-09-15T20:30:12.365Z,96469.19
2022-09-15T20:32:15.065Z,96474.84
2022-09-15T20:34:18.691Z,96473.22
2022-09-15T20:36:24.199Z,96475.66
2022-09-15T20:38:26.856Z,96469.69
2022-09-15T20:40:31.175Z,96484.25
2022-09-15T20:42:34.152Z,96480.75
2022-09-15T20:44:37.201Z,96477.25
2022-09-15T20:46:40.067Z,96474.84
2022-09-15T20:48:43.428Z,96484.81
2022-09-15T20:50:46.366Z,96477.81
2022-09-15T20:52:49.069Z,96476.75
2022-09-15T20:54:51.867Z,96483.47
2022-09-15T20:56:55.956Z,96486.69
2022-09-15T20:59:00.455Z,96488.59
2022-09-15T21:01:05.500Z,96491.00
2022-09-15T21:03:08.466Z,96496.66
2022-09-15T21:05:11.115Z,96494.50
2022-09-15T21:07:14.042Z,96496.09
2022-09-15T21:09:16.978Z,96498.28
2022-09-15T21:11:21.443Z,96491.84
2022-09-15T21:13:29.060Z,96496.13
2022-09-15T21:15:31.674Z,96500.69
2022-09-15T21:17:34.394Z,96494.22
2022-09-15T21:19:37.858Z,96498.28
2022-09-15T21:21:40.455Z,96495.56
2022-09-15T21:23:44.929Z,96499.88
2022-09-15T21:25:47.682Z,96495.03
2022-09-15T21:27:50.613Z,96500.97
2022-09-15T21:29:54.914Z,96496.63
2022-09-15T21:31:57.767Z,96493.41
2022-09-15T21:34:00.818Z,96489.63
2022-09-15T21:36:06.190Z,96493.41
2022-09-15T21:38:10.152Z,96494.50
